Main page
METAR-TAF:

METAR-TAF

Airports :

Gibraltar International Airport

Gibraltar, Gibraltar

latitude: 36-09N, longitude: 005-21W, elevation: 5 m

Current weather observation

The report was made 1 hour and 9 minutes ago, at 01:50 UTC
Wind 4 kt from the South/Southeast
Temperature 12°C
Humidity 82%
Pressure 1014 hPa
Visibility 10 km or more

METAR: LXGB 220150Z AUTO 15004KT 9999 // BKN050/// BKN140/// 12/09 Q1014

Time: 03:59 (02:59 UTC)

Forecast

The report was made 10 hours and 28 minutes ago, at 16:31 UTC
Forecast valid from 21 at 18 UTC to 22 at 03 UTC
Wind 7 kt from the Southwest
Visibility 10 km or more
Scattered clouds at a height of 4000 ft
Probability 30% :
Temporary
from 21 at 18 UTC to 21 at 23 UTC
Scattered clouds at a height of 2400 ft

TAF: LXGB 211631Z 2118/2203 22007KT 9999 SCT040 PROB30 TEMPO 2118/2123 SCT024

Weather observations and forecasts of more than 4000 airports (METAR and TAF reports).

The available stations are represented by yellow and red dots on the map.

Hover mouse over dot to see the name of the station.

Then click to see weather observations and forecasts.

To change the map : click on the green buttons with a black cross to zoom in, on the green button with a dash to zoom out, or on the green arrows for adjacent maps.


METAR-TAF: